Time;durP1;ratioP1;P1;durP2;ratioP2;P2;SDS_P1;SDS_P2;PMS_P1;PMS_P2;Temp;Humidity;BMP_temperature;BMP_pressure;BME280_temperature;BME280_humidity;BME280_pressure;Samples;Min_cycle;Max_cycle;Signal;HPM_P1;HPM_P2
2023/01/14 00:00:19;;;;;;;15.67;4.30;;;;;;;;;;5092984;28;20461;-45
2023/01/14 00:02:45;;;;;;;15.70;3.80;;;;;;;;;;5093951;28;20421;-45
2023/01/14 00:05:11;;;;;;;11.50;3.33;;;;;;;;;;5092137;28;20434;-44
2023/01/14 00:07:37;;;;;;;14.20;3.70;;;;;;;;;;5090691;28;20412;-44
2023/01/14 00:10:03;;;;;;;7.10;3.43;;;;;;;;;;5093845;28;20841;-44
2023/01/14 00:12:29;;;;;;;22.30;4.50;;;;;;;;;;5093803;28;20509;-44
2023/01/14 00:14:55;;;;;;;19.63;4.27;;;;;;;;;;5086025;28;20519;-44
2023/01/14 00:17:21;;;;;;;16.37;3.90;;;;;;;;;;5085250;28;20512;-44
2023/01/14 00:19:47;;;;;;;20.37;4.57;;;;;;;;;;5091891;28;20400;-44
2023/01/14 00:22:13;;;;;;;13.57;3.07;;;;;;;;;;5090445;28;20895;-45
2023/01/14 00:24:39;;;;;;;17.10;3.63;;;;;;;;;;5092353;28;20424;-45
2023/01/14 00:27:05;;;;;;;11.57;3.90;;;;;;;;;;5089991;28;20455;-44
2023/01/14 00:29:32;;;;;;;25.30;4.70;;;;;;;;;;5090084;28;20394;-45
2023/01/14 00:31:59;;;;;;;21.67;4.60;;;;;;;;;;5086191;28;20871;-44
2023/01/14 00:34:26;;;;;;;11.40;3.83;;;;;;;;;;5091539;28;20433;-45
2023/01/14 00:36:52;;;;;;;25.27;3.77;;;;;;;;;;5088415;28;20432;-44
2023/01/14 00:39:18;;;;;;;16.47;4.30;;;;;;;;;;5088473;28;20441;-44
2023/01/14 00:41:44;;;;;;;17.83;4.30;;;;;;;;;;5086651;28;20403;-45
2023/01/14 00:44:10;;;;;;;16.80;3.20;;;;;;;;;;5087624;28;20433;-45
2023/01/14 00:46:37;;;;;;;19.70;3.73;;;;;;;;;;5091504;28;20417;-45
2023/01/14 00:49:06;;;;;;;16.83;3.43;;;;;;;;;;5093432;28;20397;-45
2023/01/14 00:51:32;;;;;;;9.20;3.17;;;;;;;;;;5093155;28;20460;-44
2023/01/14 00:53:59;;;;;;;14.00;3.60;;;;;;;;;;5087776;28;20473;-44
2023/01/14 00:56:25;;;;;;;20.17;4.40;;;;;;;;;;5092925;28;20420;-44
2023/01/14 00:58:51;;;;;;;15.87;4.23;;;;;;;;;;5084662;28;20463;-45
2023/01/14 01:01:17;;;;;;;14.73;3.50;;;;;;;;;;5091705;28;20419;-45
2023/01/14 01:03:45;;;;;;;19.33;3.33;;;;;;;;;;5089305;28;20433;-46
2023/01/14 01:06:11;;;;;;;17.93;4.80;;;;;;;;;;5087625;28;20960;-45
2023/01/14 01:08:37;;;;;;;13.00;4.60;;;;;;;;;;5092751;28;20441;-44
2023/01/14 01:11:04;;;;;;;22.60;4.50;;;;;;;;;;5092974;28;20829;-44
2023/01/14 01:13:30;;;;;;;23.50;3.83;;;;;;;;;;5090143;28;21036;-46
2023/01/14 01:15:59;;;;;;;20.33;4.43;;;;;;;;;;5090112;28;20424;-44
2023/01/14 01:18:25;;;;;;;13.10;3.30;;;;;;;;;;5087376;28;20410;-45
2023/01/14 01:20:51;;;;;;;24.38;4.13;;;;;;;;;;5092177;28;20763;-45
2023/01/14 01:23:17;;;;;;;27.53;4.50;;;;;;;;;;5092112;28;20184;-45
2023/01/14 01:25:43;;;;;;;19.67;4.47;;;;;;;;;;5090321;28;20412;-45
2023/01/14 01:28:09;;;;;;;17.53;4.17;;;;;;;;;;5091152;28;20774;-46
2023/01/14 01:30:35;;;;;;;18.33;3.67;;;;;;;;;;5105428;28;20480;-44
2023/01/14 01:33:01;;;;;;;35.27;4.73;;;;;;;;;;5086933;28;20461;-44
2023/01/14 01:35:27;;;;;;;13.30;4.10;;;;;;;;;;5085504;28;20414;-44
2023/01/14 01:37:53;;;;;;;11.50;5.67;;;;;;;;;;5092462;28;20796;-44
2023/01/14 01:40:20;;;;;;;22.33;3.40;;;;;;;;;;5090386;28;20405;-44
2023/01/14 01:42:55;;;;;;;16.83;4.23;;;;;;;;;;5088640;28;20907;-44
2023/01/14 01:45:21;;;;;;;17.43;3.40;;;;;;;;;;5087739;28;20430;-44
2023/01/14 01:47:48;;;;;;;18.50;3.70;;;;;;;;;;5090325;28;20556;-45
2023/01/14 01:50:14;;;;;;;7.70;3.67;;;;;;;;;;5086970;28;20408;-44
2023/01/14 01:52:40;;;;;;;17.70;3.90;;;;;;;;;;5083657;28;20581;-44
2023/01/14 01:55:08;;;;;;;20.60;7.03;;;;;;;;;;5089890;28;20426;-45
2023/01/14 01:57:35;;;;;;;22.53;4.23;;;;;;;;;;5091995;28;20481;-45
2023/01/14 02:00:02;;;;;;;19.20;4.63;;;;;;;;;;5086580;28;20413;-44
2023/01/14 02:02:29;;;;;;;14.80;4.77;;;;;;;;;;5084678;28;20507;-44
2023/01/14 02:04:55;;;;;;;19.13;3.70;;;;;;;;;;5089429;28;20436;-44
2023/01/14 02:07:25;;;;;;;17.17;4.07;;;;;;;;;;5090941;28;20541;-45
2023/01/14 02:09:54;;;;;;;20.33;4.00;;;;;;;;;;5091327;28;20404;-45
2023/01/14 02:12:39;;;;;;;17.43;4.90;;;;;;;;;;5088555;28;20433;-44
2023/01/14 02:15:16;;;;;;;25.47;4.47;;;;;;;;;;5089607;28;20526;-46
2023/01/14 02:18:01;;;;;;;16.40;4.27;;;;;;;;;;5091673;28;20444;-44
2023/01/14 02:20:45;;;;;;;14.97;3.20;;;;;;;;;;5083991;28;20754;-45
2023/01/14 02:23:26;;;;;;;26.37;4.00;;;;;;;;;;5091390;28;20432;-45
2023/01/14 02:25:52;;;;;;;15.60;3.70;;;;;;;;;;5068555;28;20757;-45
2023/01/14 02:28:37;;;;;;;16.23;4.27;;;;;;;;;;5087056;28;20417;-44
2023/01/14 02:31:13;;;;;;;17.33;3.87;;;;;;;;;;5084085;28;20463;-43
2023/01/14 02:33:42;;;;;;;15.90;2.97;;;;;;;;;;5083337;28;20845;-44
2023/01/14 02:36:08;;;;;;;23.03;3.67;;;;;;;;;;5090341;28;20897;-44
2023/01/14 02:38:41;;;;;;;19.80;3.70;;;;;;;;;;5088839;28;20468;-44
2023/01/14 02:41:13;;;;;;;21.93;3.53;;;;;;;;;;5091526;28;20409;-44
2023/01/14 02:44:10;;;;;;;21.03;4.40;;;;;;;;;;5091242;28;20425;-45
2023/01/14 02:46:47;;;;;;;29.80;5.80;;;;;;;;;;5088593;28;20402;-45
2023/01/14 02:49:15;;;;;;;18.07;3.67;;;;;;;;;;5086813;28;20397;-46
2023/01/14 02:51:42;;;;;;;16.90;3.60;;;;;;;;;;5091376;28;20857;-45
2023/01/14 02:54:08;;;;;;;22.73;5.43;;;;;;;;;;5088485;28;20509;-46
2023/01/14 02:56:34;;;;;;;18.20;5.17;;;;;;;;;;5091150;28;20444;-45
2023/01/14 02:59:14;;;;;;;22.23;4.03;;;;;;;;;;5085530;28;20413;-46
2023/01/14 03:01:46;;;;;;;13.53;3.30;;;;;;;;;;5083717;28;20493;-45
2023/01/14 03:04:21;;;;;;;11.97;4.67;;;;;;;;;;5090197;28;20438;-47
2023/01/14 03:07:03;;;;;;;18.80;4.78;;;;;;;;;;5091102;28;20975;-46
2023/01/14 03:09:28;;;;;;;28.33;4.00;;;;;;;;;;5087206;28;20186;-45
2023/01/14 03:12:04;;;;;;;16.87;3.40;;;;;;;;;;5091896;28;20416;-46
2023/01/14 03:14:38;;;;;;;19.53;4.87;;;;;;;;;;5092304;28;20443;-46
2023/01/14 03:17:15;;;;;;;24.43;6.87;;;;;;;;;;5091448;28;20902;-46
2023/01/14 03:19:45;;;;;;;21.67;3.90;;;;;;;;;;5094499;28;20409;-46
2023/01/14 03:22:12;;;;;;;19.13;3.37;;;;;;;;;;5094914;28;20562;-46
2023/01/14 03:24:43;;;;;;;21.53;4.50;;;;;;;;;;5090521;28;20800;-46
2023/01/14 03:27:11;;;;;;;22.83;5.13;;;;;;;;;;5094895;28;20431;-45
2023/01/14 03:29:42;;;;;;;32.23;5.50;;;;;;;;;;5087599;28;20419;-45
2023/01/14 03:32:15;;;;;;;19.03;3.97;;;;;;;;;;5094074;28;20764;-46
2023/01/14 03:34:44;;;;;;;31.80;4.33;;;;;;;;;;5093008;28;20432;-45
2023/01/14 03:37:12;;;;;;;20.23;4.37;;;;;;;;;;5093524;28;20409;-46
2023/01/14 03:39:40;;;;;;;13.80;3.50;;;;;;;;;;5092541;28;20414;-47
2023/01/14 03:42:19;;;;;;;17.63;3.20;;;;;;;;;;5090810;28;20916;-46
2023/01/14 03:44:54;;;;;;;13.00;3.80;;;;;;;;;;5088052;28;20789;-45
2023/01/14 03:47:21;;;;;;;25.70;5.73;;;;;;;;;;5094399;28;20412;-46
2023/01/14 03:49:48;;;;;;;29.60;3.87;;;;;;;;;;5093022;28;20419;-46
2023/01/14 03:52:20;;;;;;;12.10;3.13;;;;;;;;;;5094240;28;20413;-46
2023/01/14 03:54:56;;;;;;;18.17;3.50;;;;;;;;;;5089306;28;20460;-46
2023/01/14 03:57:45;;;;;;;10.97;3.13;;;;;;;;;;5084957;28;20416;-46
2023/01/14 04:00:15;;;;;;;15.17;3.67;;;;;;;;;;5082336;28;20410;-45
2023/01/14 04:02:41;;;;;;;28.93;3.67;;;;;;;;;;5091594;28;21010;-46
2023/01/14 04:05:08;;;;;;;18.57;4.17;;;;;;;;;;5093442;28;20923;-46
2023/01/14 04:07:34;;;;;;;11.13;2.60;;;;;;;;;;5091629;28;20408;-46
2023/01/14 04:10:00;;;;;;;18.50;4.37;;;;;;;;;;5089312;28;20440;-45
2023/01/14 04:12:25;;;;;;;26.67;4.10;;;;;;;;;;5087224;28;20909;-45
2023/01/14 04:17:39;;;;;;;29.15;4.10;;;;;;;;;;5092319;28;20426;-45
2023/01/14 04:20:06;;;;;;;32.23;4.37;;;;;;;;;;5090845;28;20182;-46
2023/01/14 04:22:32;;;;;;;8.40;3.20;;;;;;;;;;5093113;28;20486;-46
2023/01/14 04:24:58;;;;;;;13.70;4.17;;;;;;;;;;5091105;28;20954;-46
2023/01/14 04:27:24;;;;;;;15.90;3.40;;;;;;;;;;5089723;28;20442;-46
2023/01/14 04:29:50;;;;;;;11.50;3.90;;;;;;;;;;5085835;28;20413;-46
2023/01/14 04:32:16;;;;;;;12.20;3.57;;;;;;;;;;5092060;28;20506;-47
2023/01/14 04:34:42;;;;;;;18.47;3.30;;;;;;;;;;5090298;28;20446;-46
2023/01/14 04:37:09;;;;;;;21.10;4.30;;;;;;;;;;5088972;28;20763;-47
2023/01/14 04:39:35;;;;;;;10.87;3.60;;;;;;;;;;5087075;28;20504;-47
2023/01/14 04:44:47;;;;;;;13.60;3.37;;;;;;;;;;5091895;28;20287;-45
2023/01/14 04:47:14;;;;;;;17.30;4.23;;;;;;;;;;5092189;28;20403;-45
2023/01/14 04:49:40;;;;;;;14.03;2.87;;;;;;;;;;5091678;28;20396;-46
2023/01/14 04:52:06;;;;;;;19.03;3.60;;;;;;;;;;5088412;28;20409;-46
2023/01/14 04:54:32;;;;;;;14.93;4.27;;;;;;;;;;5086589;28;20472;-46
2023/01/14 04:56:58;;;;;;;17.07;4.30;;;;;;;;;;5090833;28;20418;-46
2023/01/14 04:59:24;;;;;;;17.50;3.60;;;;;;;;;;5091948;28;20412;-46
2023/01/14 05:01:50;;;;;;;24.57;4.73;;;;;;;;;;5092873;28;20407;-45
2023/01/14 05:04:16;;;;;;;17.13;3.53;;;;;;;;;;5089786;28;20438;-47
2023/01/14 05:06:42;;;;;;;23.50;3.60;;;;;;;;;;5091439;28;20412;-46
2023/01/14 05:09:08;;;;;;;20.20;3.35;;;;;;;;;;5086845;28;20404;-46
2023/01/14 05:11:34;;;;;;;14.88;3.33;;;;;;;;;;5084846;28;20729;-46
2023/01/14 05:14:00;;;;;;;23.37;3.30;;;;;;;;;;5092436;28;20205;-46
2023/01/14 05:16:27;;;;;;;20.27;4.23;;;;;;;;;;5071947;28;20434;-45
2023/01/14 05:18:53;;;;;;;16.30;2.70;;;;;;;;;;5084538;28;20403;-45
2023/01/14 05:21:19;;;;;;;20.37;3.90;;;;;;;;;;5090425;28;20408;-47
2023/01/14 05:23:45;;;;;;;17.53;4.17;;;;;;;;;;5089635;28;20787;-45
2023/01/14 05:26:11;;;;;;;17.70;3.07;;;;;;;;;;5086352;28;20871;-46
2023/01/14 05:28:37;;;;;;;14.73;3.27;;;;;;;;;;5090690;28;20418;-46
2023/01/14 05:31:06;;;;;;;12.80;4.00;;;;;;;;;;5089121;28;20857;-45
2023/01/14 05:33:32;;;;;;;18.93;3.50;;;;;;;;;;5090550;28;20467;-46
2023/01/14 05:35:59;;;;;;;8.50;3.00;;;;;;;;;;5085563;28;20411;-45
2023/01/14 05:38:25;;;;;;;12.57;3.43;;;;;;;;;;5091782;28;20416;-46
2023/01/14 05:40:51;;;;;;;12.47;2.87;;;;;;;;;;5090945;28;20415;-46
2023/01/14 05:46:06;;;;;;;16.27;3.20;;;;;;;;;;5084147;28;20407;-46
2023/01/14 05:48:32;;;;;;;7.03;2.80;;;;;;;;;;5088608;28;20403;-46
2023/01/14 05:50:58;;;;;;;31.07;3.30;;;;;;;;;;5085688;28;20500;-45
2023/01/14 05:53:25;;;;;;;19.50;3.83;;;;;;;;;;5091160;28;20464;-45
2023/01/14 05:55:51;;;;;;;14.90;4.30;;;;;;;;;;5091059;28;20925;-45
2023/01/14 05:58:18;;;;;;;10.63;2.97;;;;;;;;;;5089370;28;20832;-45
2023/01/14 06:06:24;;;;;;;8.45;2.75;;;;;;;;;;5086271;28;20454;-46
2023/01/14 06:08:52;;;;;;;12.40;2.60;;;;;;;;;;5089641;28;20607;-45
2023/01/14 06:11:21;;;;;;;11.00;2.53;;;;;;;;;;5089577;28;20426;-45
2023/01/14 06:13:52;;;;;;;7.50;4.03;;;;;;;;;;5088766;28;20459;-45
2023/01/14 06:16:19;;;;;;;11.67;3.10;;;;;;;;;;5067616;28;20416;-46
2023/01/14 06:18:50;;;;;;;8.70;2.73;;;;;;;;;;5085304;28;20419;-45
2023/01/14 06:21:17;;;;;;;10.27;3.07;;;;;;;;;;5067602;28;20961;-45
2023/01/14 06:23:43;;;;;;;10.37;3.30;;;;;;;;;;5089698;28;20471;-45
2023/01/14 06:26:14;;;;;;;13.33;2.60;;;;;;;;;;5088514;28;20444;-45
2023/01/14 06:28:40;;;;;;;13.67;3.33;;;;;;;;;;5086763;28;20822;-45
2023/01/14 06:31:14;;;;;;;14.43;3.07;;;;;;;;;;5088079;28;20441;-45
2023/01/14 06:33:40;;;;;;;12.80;3.10;;;;;;;;;;5088570;28;20461;-45
2023/01/14 06:36:07;;;;;;;10.10;3.27;;;;;;;;;;5085216;28;20540;-45
2023/01/14 06:38:34;;;;;;;7.77;2.67;;;;;;;;;;5090337;28;20411;-45
2023/01/14 06:41:01;;;;;;;10.00;3.20;;;;;;;;;;5089372;28;20457;-45
2023/01/14 06:43:27;;;;;;;6.60;3.40;;;;;;;;;;5086958;28;20990;-44
2023/01/14 06:45:54;;;;;;;14.93;2.77;;;;;;;;;;5088175;28;20784;-45
2023/01/14 06:48:20;;;;;;;18.40;4.70;;;;;;;;;;5095831;28;20411;-45
2023/01/14 06:50:46;;;;;;;14.03;3.10;;;;;;;;;;5094891;28;20424;-44
2023/01/14 06:53:12;;;;;;;5.87;2.37;;;;;;;;;;5095769;28;20459;-44
2023/01/14 06:55:38;;;;;;;8.20;2.53;;;;;;;;;;5096128;28;20744;-45
2023/01/14 06:58:04;;;;;;;13.17;3.23;;;;;;;;;;5091607;28;20440;-44
2023/01/14 07:00:30;;;;;;;5.97;3.10;;;;;;;;;;5089784;28;20837;-45
2023/01/14 07:02:56;;;;;;;7.90;3.00;;;;;;;;;;5095768;28;20408;-45
2023/01/14 07:05:22;;;;;;;12.33;2.43;;;;;;;;;;5096348;28;20451;-45
2023/01/14 07:07:48;;;;;;;8.80;3.23;;;;;;;;;;5096271;28;21012;-44
2023/01/14 07:10:15;;;;;;;9.07;2.70;;;;;;;;;;5093171;28;20899;-45
2023/01/14 07:12:45;;;;;;;6.27;2.43;;;;;;;;;;5093920;28;20455;-45
2023/01/14 07:15:11;;;;;;;5.70;2.10;;;;;;;;;;5090270;28;20893;-44
2023/01/14 07:17:38;;;;;;;5.60;2.90;;;;;;;;;;5095431;28;20416;-45
2023/01/14 07:20:04;;;;;;;11.07;3.67;;;;;;;;;;5094693;28;20413;-44
2023/01/14 07:22:30;;;;;;;24.43;3.30;;;;;;;;;;5092780;28;20906;-45
2023/01/14 07:24:56;;;;;;;6.53;2.30;;;;;;;;;;5091091;28;20509;-45
2023/01/14 07:27:22;;;;;;;14.03;4.00;;;;;;;;;;5095153;28;20452;-45
2023/01/14 07:29:48;;;;;;;10.93;2.73;;;;;;;;;;5093130;28;20397;-45
2023/01/14 07:32:13;;;;;;;13.37;3.57;;;;;;;;;;5089815;28;20419;-44
2023/01/14 07:34:39;;;;;;;21.63;3.23;;;;;;;;;;5093788;28;20555;-45
2023/01/14 07:37:05;;;;;;;17.10;3.70;;;;;;;;;;5092438;28;20754;-45
2023/01/14 07:39:31;;;;;;;6.50;2.40;;;;;;;;;;5091052;28;20408;-44
2023/01/14 07:41:57;;;;;;;11.20;2.83;;;;;;;;;;5090065;28;20412;-44
2023/01/14 07:44:24;;;;;;;10.17;2.93;;;;;;;;;;5088867;28;20425;-45
2023/01/14 07:46:54;;;;;;;11.50;2.60;;;;;;;;;;5093885;28;20415;-45
2023/01/14 07:49:20;;;;;;;8.53;2.57;;;;;;;;;;5093281;28;20444;-45
2023/01/14 07:51:46;;;;;;;13.63;2.60;;;;;;;;;;5094066;28;20990;-44
2023/01/14 07:54:12;;;;;;;10.57;2.47;;;;;;;;;;5094152;28;20595;-44
2023/01/14 07:56:38;;;;;;;8.73;2.53;;;;;;;;;;5088058;28;20412;-44
2023/01/14 07:59:04;;;;;;;15.60;3.80;;;;;;;;;;5090215;28;20850;-45
2023/01/14 08:01:30;;;;;;;4.80;1.60;;;;;;;;;;5092592;28;20561;-45
2023/01/14 08:03:58;;;;;;;8.70;2.53;;;;;;;;;;5091652;28;20444;-45
2023/01/14 08:06:24;;;;;;;8.88;3.33;;;;;;;;;;5094662;28;20817;-44
2023/01/14 08:08:50;;;;;;;15.63;2.77;;;;;;;;;;5094844;28;20185;-44
2023/01/14 08:11:16;;;;;;;11.60;3.90;;;;;;;;;;5095100;28;20481;-44
2023/01/14 08:13:42;;;;;;;8.82;2.63;;;;;;;;;;5089568;28;20914;-44
2023/01/14 08:16:09;;;;;;;8.63;2.60;;;;;;;;;;5093682;28;20598;-45
2023/01/14 08:18:35;;;;;;;6.30;2.83;;;;;;;;;;5094601;28;20170;-44
2023/01/14 08:21:03;;;;;;;14.80;3.58;;;;;;;;;;5089833;28;20462;-44
2023/01/14 08:23:29;;;;;;;8.67;3.37;;;;;;;;;;5093361;28;20201;-45
2023/01/14 08:25:59;;;;;;;12.30;2.90;;;;;;;;;;5090820;28;20949;-45
2023/01/14 08:28:25;;;;;;;8.65;2.25;;;;;;;;;;5090370;28;20241;-45
2023/01/14 08:30:59;;;;;;;9.32;3.05;;;;;;;;;;5093788;28;20165;-46
2023/01/14 08:33:25;;;;;;;7.20;2.85;;;;;;;;;;5090102;28;20209;-46
2023/01/14 08:35:51;;;;;;;16.80;3.10;;;;;;;;;;5089374;28;20182;-45
2023/01/14 08:38:17;;;;;;;15.57;3.80;;;;;;;;;;5087785;28;20407;-46
2023/01/14 08:40:43;;;;;;;8.47;2.90;;;;;;;;;;5086195;28;20408;-45
2023/01/14 08:43:09;;;;;;;16.20;2.90;;;;;;;;;;5092486;28;20409;-45
2023/01/14 08:45:35;;;;;;;12.83;3.77;;;;;;;;;;5090970;28;20417;-45
2023/01/14 08:48:01;;;;;;;13.03;3.53;;;;;;;;;;5092885;28;20408;-45
2023/01/14 08:50:27;;;;;;;6.10;3.10;;;;;;;;;;5089921;28;20549;-45
2023/01/14 08:52:53;;;;;;;7.70;2.67;;;;;;;;;;5087349;28;20463;-45
2023/01/14 08:55:19;;;;;;;12.20;3.00;;;;;;;;;;5086444;28;20435;-44
2023/01/14 08:57:46;;;;;;;12.60;3.50;;;;;;;;;;5092602;28;20411;-44
2023/01/14 09:00:12;;;;;;;11.18;3.00;;;;;;;;;;5090736;28;20860;-45
2023/01/14 09:02:38;;;;;;;15.63;2.37;;;;;;;;;;5088985;28;20179;-45
2023/01/14 09:05:04;;;;;;;10.82;2.63;;;;;;;;;;5090345;28;20499;-45
2023/01/14 09:18:29;;;;;;;15.63;3.42;;;;;;;;;;5089665;28;20431;-46
2023/01/14 09:20:55;;;;;;;11.90;2.30;;;;;;;;;;5086833;28;20612;-46
2023/01/14 09:23:21;;;;;;;14.83;3.17;;;;;;;;;;5084835;28;20431;-45
2023/01/14 09:25:47;;;;;;;8.67;2.20;;;;;;;;;;5091875;28;20408;-47
2023/01/14 09:28:13;;;;;;;13.77;2.87;;;;;;;;;;5092666;28;20968;-46
2023/01/14 09:30:39;;;;;;;9.53;2.90;;;;;;;;;;5088499;28;20529;-46
2023/01/14 09:33:06;;;;;;;6.97;2.50;;;;;;;;;;5089988;28;20438;-45
2023/01/14 09:35:32;;;;;;;5.40;2.20;;;;;;;;;;5089296;28;20897;-44
2023/01/14 09:37:58;;;;;;;7.43;2.37;;;;;;;;;;5084944;28;20409;-45
2023/01/14 09:40:24;;;;;;;11.03;2.90;;;;;;;;;;5091656;28;20466;-44
2023/01/14 09:42:51;;;;;;;8.17;2.90;;;;;;;;;;5089684;28;20989;-44
2023/01/14 09:45:34;;;;;;;11.43;3.50;;;;;;;;;;5088293;28;20439;-44
2023/01/14 09:48:03;;;;;;;8.90;2.57;;;;;;;;;;5079609;28;21102;-44
2023/01/14 09:50:48;;;;;;;9.93;2.40;;;;;;;;;;5065092;28;20428;-45
2023/01/14 09:53:20;;;;;;;8.63;2.77;;;;;;;;;;5090778;28;20502;-44
2023/01/14 09:55:55;;;;;;;11.73;3.07;;;;;;;;;;5089493;28;20423;-46
2023/01/14 09:58:24;;;;;;;9.33;2.10;;;;;;;;;;5087652;28;21090;-45
2023/01/14 10:00:50;;;;;;;4.80;2.27;;;;;;;;;;5091496;28;20437;-43
2023/01/14 10:03:35;;;;;;;7.57;2.10;;;;;;;;;;5086832;28;20436;-44
2023/01/14 10:06:07;;;;;;;14.43;2.90;;;;;;;;;;5084997;28;20409;-45
2023/01/14 10:08:39;;;;;;;9.50;2.87;;;;;;;;;;5086647;28;20429;-45
2023/01/14 10:11:07;;;;;;;10.60;2.53;;;;;;;;;;5089792;28;20486;-44
2023/01/14 10:13:35;;;;;;;6.50;2.60;;;;;;;;;;5087686;28;21006;-44
2023/01/14 10:16:16;;;;;;;3.50;1.60;;;;;;;;;;5086575;28;20908;-44
2023/01/14 10:18:55;;;;;;;4.93;1.83;;;;;;;;;;5084615;28;20413;-44
2023/01/14 10:21:30;;;;;;;7.93;1.90;;;;;;;;;;5090954;28;20416;-45
2023/01/14 10:23:56;;;;;;;9.17;2.37;;;;;;;;;;5081696;28;20924;-44
2023/01/14 10:26:23;;;;;;;5.87;1.77;;;;;;;;;;5088829;28;20421;-44
2023/01/14 10:28:52;;;;;;;7.57;1.93;;;;;;;;;;5090844;28;20411;-46
2023/01/14 10:31:31;;;;;;;4.97;1.90;;;;;;;;;;5087068;28;20416;-44
2023/01/14 10:33:58;;;;;;;6.67;2.57;;;;;;;;;;5090566;28;20467;-45
2023/01/14 10:36:29;;;;;;;3.17;1.43;;;;;;;;;;5091479;28;20410;-45
2023/01/14 10:38:55;;;;;;;4.53;2.07;;;;;;;;;;5085682;28;20402;-44
2023/01/14 10:41:48;;;;;;;4.63;2.27;;;;;;;;;;5088057;28;21022;-45
2023/01/14 10:44:32;;;;;;;9.20;1.90;;;;;;;;;;5079866;28;20434;-46
2023/01/14 10:47:01;;;;;;;7.27;2.53;;;;;;;;;;5071560;28;20792;-46
2023/01/14 10:49:29;;;;;;;6.07;2.13;;;;;;;;;;5091304;28;20413;-45
2023/01/14 10:51:57;;;;;;;5.83;2.10;;;;;;;;;;5089580;28;20417;-46
2023/01/14 10:54:24;;;;;;;2.10;1.63;;;;;;;;;;5088037;28;20512;-46
2023/01/14 10:56:53;;;;;;;12.27;3.37;;;;;;;;;;5090855;28;20437;-47
2023/01/14 10:59:29;;;;;;;5.23;1.83;;;;;;;;;;5086958;28;20409;-46
2023/01/14 11:01:55;;;;;;;7.43;2.00;;;;;;;;;;5090805;28;20418;-46
2023/01/14 11:04:23;;;;;;;3.43;1.77;;;;;;;;;;5073073;28;20440;-46
2023/01/14 11:06:49;;;;;;;12.97;1.77;;;;;;;;;;5089469;28;20418;-46
2023/01/14 11:09:18;;;;;;;5.80;1.80;;;;;;;;;;5087751;28;20416;-47
2023/01/14 11:11:45;;;;;;;2.40;1.60;;;;;;;;;;5084510;28;20944;-46
2023/01/14 11:14:19;;;;;;;8.40;1.80;;;;;;;;;;5090158;28;20489;-46
2023/01/14 11:16:45;;;;;;;5.30;1.93;;;;;;;;;;5091046;28;20401;-46
2023/01/14 11:19:11;;;;;;;5.03;2.00;;;;;;;;;;5090221;28;20880;-46
2023/01/14 11:21:41;;;;;;;3.70;1.83;;;;;;;;;;5090564;28;20408;-45
2023/01/14 11:24:19;;;;;;;7.10;2.33;;;;;;;;;;5072097;28;20945;-46
2023/01/14 11:26:46;;;;;;;10.73;2.07;;;;;;;;;;5090729;28;20977;-46
2023/01/14 11:29:12;;;;;;;3.97;1.73;;;;;;;;;;5090564;28;20422;-47
2023/01/14 11:31:38;;;;;;;2.93;1.67;;;;;;;;;;5090551;28;20491;-46
2023/01/14 11:34:05;;;;;;;5.27;1.57;;;;;;;;;;5093798;28;20515;-46
2023/01/14 11:36:35;;;;;;;3.83;1.80;;;;;;;;;;5090376;28;20476;-47
2023/01/14 11:39:02;;;;;;;2.27;2.07;;;;;;;;;;5073929;28;20465;-46
2023/01/14 11:41:31;;;;;;;2.10;1.83;;;;;;;;;;5073594;28;20403;-46
2023/01/14 11:44:00;;;;;;;5.10;1.73;;;;;;;;;;5073734;28;20486;-46
2023/01/14 11:46:26;;;;;;;2.30;1.93;;;;;;;;;;5073005;28;20413;-47
2023/01/14 11:48:59;;;;;;;8.03;2.20;;;;;;;;;;5073769;28;20416;-47
2023/01/14 11:51:27;;;;;;;3.73;1.80;;;;;;;;;;5073974;28;20794;-47
2023/01/14 11:53:54;;;;;;;2.60;1.93;;;;;;;;;;5073730;28;20892;-47
2023/01/14 11:56:23;;;;;;;1.73;1.63;;;;;;;;;;5089785;28;20500;-47
2023/01/14 11:58:51;;;;;;;3.50;2.00;;;;;;;;;;5094437;28;20905;-47
2023/01/14 12:01:32;;;;;;;9.60;2.50;;;;;;;;;;5094187;28;20939;-47
2023/01/14 12:04:08;;;;;;;2.30;1.97;;;;;;;;;;5094076;28;20485;-46
2023/01/14 12:06:43;;;;;;;4.93;2.23;;;;;;;;;;5094319;28;20489;-47
2023/01/14 12:09:11;;;;;;;2.50;1.60;;;;;;;;;;5094320;28;20500;-47
2023/01/14 12:11:45;;;;;;;1.87;1.70;;;;;;;;;;5093755;28;20477;-47
2023/01/14 12:17:01;;;;;;;3.73;2.17;;;;;;;;;;5094409;28;20421;-46
2023/01/14 12:19:44;;;;;;;3.70;1.70;;;;;;;;;;5094126;28;20413;-46
2023/01/14 12:22:17;;;;;;;4.93;2.43;;;;;;;;;;5093807;28;20513;-47
2023/01/14 12:24:43;;;;;;;5.77;2.57;;;;;;;;;;5093781;28;20835;-46
2023/01/14 12:27:15;;;;;;;3.20;2.70;;;;;;;;;;5093913;28;20411;-47
2023/01/14 12:29:43;;;;;;;4.50;1.97;;;;;;;;;;5093813;28;20466;-47
2023/01/14 12:32:14;;;;;;;2.13;1.50;;;;;;;;;;5093669;28;20933;-46
2023/01/14 12:34:46;;;;;;;4.83;1.87;;;;;;;;;;5093227;28;20461;-47
2023/01/14 12:37:12;;;;;;;9.23;1.87;;;;;;;;;;5093576;28;20512;-46
2023/01/14 12:45:41;;;;;;;6.47;1.63;;;;;;;;;;5091158;28;20421;-46
2023/01/14 12:48:07;;;;;;;3.33;1.93;;;;;;;;;;5093582;28;20420;-47
2023/01/14 12:50:34;;;;;;;2.83;2.60;;;;;;;;;;5093218;28;20912;-46
2023/01/14 12:53:00;;;;;;;2.80;1.57;;;;;;;;;;5086418;28;20447;-47
2023/01/14 12:55:38;;;;;;;3.80;1.87;;;;;;;;;;5092827;28;20409;-46
2023/01/14 12:58:06;;;;;;;2.03;1.83;;;;;;;;;;5091746;28;20414;-47
2023/01/14 13:00:34;;;;;;;2.70;1.60;;;;;;;;;;5090133;28;20782;-46
2023/01/14 13:03:14;;;;;;;1.93;1.57;;;;;;;;;;5091814;28;20494;-46
2023/01/14 13:05:44;;;;;;;3.10;1.93;;;;;;;;;;5098811;28;20409;-46
2023/01/14 13:08:22;;;;;;;3.73;2.00;;;;;;;;;;5087234;28;20821;-47
2023/01/14 13:10:56;;;;;;;1.57;1.47;;;;;;;;;;5084631;28;20401;-47
2023/01/14 13:13:23;;;;;;;7.03;1.83;;;;;;;;;;5091230;28;20475;-48
2023/01/14 13:15:50;;;;;;;4.87;1.93;;;;;;;;;;5089753;28;20494;-47
2023/01/14 13:18:34;;;;;;;2.73;1.57;;;;;;;;;;5088281;28;20413;-47
2023/01/14 13:21:01;;;;;;;2.27;1.60;;;;;;;;;;5079190;28;20412;-48
2023/01/14 13:23:36;;;;;;;2.57;1.77;;;;;;;;;;5084251;28;20434;-47
2023/01/14 13:26:02;;;;;;;1.73;1.30;;;;;;;;;;5091398;28;20482;-47
2023/01/14 13:28:28;;;;;;;1.67;1.57;;;;;;;;;;5089665;28;20423;-47
2023/01/14 13:31:04;;;;;;;1.57;1.47;;;;;;;;;;5092247;28;20440;-47
2023/01/14 13:33:33;;;;;;;2.33;1.50;;;;;;;;;;5088008;28;20482;-48
2023/01/14 13:36:09;;;;;;;1.63;1.53;;;;;;;;;;5092697;28;20421;-47
2023/01/14 13:38:39;;;;;;;5.17;1.40;;;;;;;;;;5092513;28;20453;-47
2023/01/14 13:41:06;;;;;;;2.60;2.33;;;;;;;;;;5092432;28;20432;-47
2023/01/14 13:43:35;;;;;;;1.70;1.60;;;;;;;;;;5091944;28;20529;-47
2023/01/14 13:46:02;;;;;;;2.50;1.40;;;;;;;;;;5092349;28;20424;-47
2023/01/14 13:48:38;;;;;;;1.93;1.83;;;;;;;;;;5092335;28;20446;-48
2023/01/14 13:51:22;;;;;;;1.90;1.80;;;;;;;;;;5092253;28;20831;-48
2023/01/14 13:53:56;;;;;;;1.40;1.30;;;;;;;;;;5091673;28;20567;-48
2023/01/14 13:56:22;;;;;;;1.47;1.37;;;;;;;;;;5089387;28;20406;-48
2023/01/14 13:58:49;;;;;;;1.70;1.60;;;;;;;;;;5072044;28;20395;-48
2023/01/14 14:01:45;;;;;;;1.80;1.67;;;;;;;;;;5071417;28;20449;-48
2023/01/14 14:04:12;;;;;;;1.93;1.80;;;;;;;;;;5071006;28;20445;-48
2023/01/14 14:06:42;;;;;;;1.30;1.20;;;;;;;;;;5071101;28;20900;-47
2023/01/14 14:09:11;;;;;;;1.40;1.30;;;;;;;;;;5071338;28;20405;-48
2023/01/14 14:11:46;;;;;;;4.93;1.83;;;;;;;;;;5070874;28;20428;-48
2023/01/14 14:14:16;;;;;;;3.10;1.40;;;;;;;;;;5070921;28;20471;-48
2023/01/14 14:16:49;;;;;;;1.80;1.70;;;;;;;;;;5070858;28;20526;-48
2023/01/14 14:19:18;;;;;;;1.60;1.50;;;;;;;;;;5071264;28;20453;-48
2023/01/14 14:22:02;;;;;;;2.37;1.60;;;;;;;;;;5070735;28;20790;-48
2023/01/14 14:24:28;;;;;;;1.97;1.87;;;;;;;;;;5070886;28;20431;-48
2023/01/14 14:26:55;;;;;;;1.43;1.33;;;;;;;;;;5071056;28;20442;-48
2023/01/14 14:29:22;;;;;;;1.53;1.43;;;;;;;;;;5071061;28;20498;-48
2023/01/14 14:31:49;;;;;;;1.70;1.60;;;;;;;;;;5070823;28;20448;-48
2023/01/14 14:34:20;;;;;;;3.20;1.40;;;;;;;;;;5070650;28;20494;-48
2023/01/14 14:36:51;;;;;;;1.57;1.47;;;;;;;;;;5070757;28;20437;-48
2023/01/14 14:39:22;;;;;;;1.30;1.20;;;;;;;;;;5070994;28;20411;-48
2023/01/14 14:41:48;;;;;;;2.27;1.87;;;;;;;;;;5077909;28;20499;-49
2023/01/14 14:44:16;;;;;;;2.73;1.50;;;;;;;;;;5090838;28;20910;-48
2023/01/14 14:46:42;;;;;;;1.30;1.23;;;;;;;;;;5090850;28;20406;-48
2023/01/14 14:49:12;;;;;;;1.30;1.20;;;;;;;;;;5091089;28;20523;-49
2023/01/14 14:51:44;;;;;;;3.40;1.90;;;;;;;;;;5090797;28;20425;-49
2023/01/14 14:54:23;;;;;;;2.23;1.30;;;;;;;;;;5088703;28;21191;-48
2023/01/14 14:56:49;;;;;;;1.70;1.60;;;;;;;;;;5073430;28;20414;-48
2023/01/14 14:59:16;;;;;;;1.50;1.40;;;;;;;;;;5085244;28;20842;-49
2023/01/14 15:01:42;;;;;;;1.37;1.27;;;;;;;;;;5064038;28;20507;-48
2023/01/14 15:04:15;;;;;;;1.93;1.50;;;;;;;;;;5091943;28;20797;-48
2023/01/14 15:06:41;;;;;;;1.83;1.20;;;;;;;;;;5091473;28;20417;-49
2023/01/14 15:09:09;;;;;;;1.60;1.50;;;;;;;;;;5076206;28;20422;-49
2023/01/14 15:11:43;;;;;;;1.87;1.77;;;;;;;;;;5092476;28;20482;-48
2023/01/14 15:14:17;;;;;;;1.67;1.57;;;;;;;;;;5071475;28;20453;-49
2023/01/14 15:16:49;;;;;;;1.63;1.40;;;;;;;;;;5094788;28;20413;-48
2023/01/14 15:19:15;;;;;;;1.83;1.43;;;;;;;;;;5077973;28;20415;-48